Time;durP1;ratioP1;P1;durP2;ratioP2;P2;SDS_P1;SDS_P2;PMS_P1;PMS_P2;Temp;Humidity;BMP_temperature;BMP_pressure;BME280_temperature;BME280_humidity;BME280_pressure;Samples;Min_cycle;Max_cycle;Signal;HPM_P1;HPM_P2
2023/04/02 00:00:18;;;;;;;22.50;11.10;;;;;;;6.67;96.99;99397.10;109759;1271;23465;-58
2023/04/02 00:03:09;;;;;;;23.70;10.40;;;;;;;6.62;96.84;99401.17;109785;1272;22201;-57
2023/04/02 00:05:50;;;;;;;21.30;10.10;;;;;;;6.58;96.86;99399.62;109784;1273;22207;-59
2023/04/02 00:08:28;;;;;;;21.40;10.60;;;;;;;6.49;96.84;99403.87;109902;1264;23439;-58
2023/04/02 00:11:01;;;;;;;21.80;8.50;;;;;;;6.44;97.23;99405.68;109961;1280;22228;-59
2023/04/02 00:13:35;;;;;;;20.10;9.90;;;;;;;6.43;97.18;99405.96;109972;1273;22311;-61
2023/04/02 00:16:12;;;;;;;26.50;11.50;;;;;;;6.42;97.19;99412.45;106957;1274;22617;-59
2023/04/02 00:18:47;;;;;;;20.80;9.80;;;;;;;6.38;97.20;99414.38;109998;1274;23664;-60
2023/04/02 00:21:22;;;;;;;20.70;8.00;;;;;;;6.37;97.42;99416.81;109995;1264;22976;-59
2023/04/02 00:23:55;;;;;;;23.10;11.30;;;;;;;6.34;97.19;99417.10;109979;1276;22266;-57
2023/04/02 00:26:32;;;;;;;21.10;9.30;;;;;;;6.30;97.26;99421.70;109987;1274;23002;-58
2023/04/02 00:29:05;;;;;;;20.20;9.50;;;;;;;6.27;97.22;99429.27;110004;1273;22299;-58
2023/04/02 00:31:38;;;;;;;23.10;10.60;;;;;;;6.21;97.02;99433.34;109989;1280;22268;-59
2023/04/02 00:34:17;;;;;;;20.80;9.90;;;;;;;6.19;96.92;99438.92;110004;1273;22235;-57
2023/04/02 00:36:49;;;;;;;20.40;9.70;;;;;;;6.18;97.07;99443.17;109990;1270;22793;-57
2023/04/02 00:39:24;;;;;;;19.80;8.60;;;;;;;6.14;96.96;99443.52;109996;1272;23181;-55
2023/04/02 00:42:03;;;;;;;22.00;9.50;;;;;;;6.11;97.17;99442.77;109969;1274;22231;-58
2023/04/02 00:44:37;;;;;;;18.80;9.30;;;;;;;6.08;96.94;99449.73;109997;1267;22129;-56
2023/04/02 00:47:18;;;;;;;21.40;10.00;;;;;;;6.02;96.78;99452.41;109975;1265;22356;-59
2023/04/02 00:49:55;;;;;;;20.20;9.50;;;;;;;5.92;96.78;99455.48;109986;1280;22926;-60
2023/04/02 00:52:29;;;;;;;23.50;9.00;;;;;;;5.86;96.92;99456.45;109977;1268;22889;-60
2023/04/02 00:55:09;;;;;;;21.90;10.40;;;;;;;5.80;96.96;99454.87;110003;1274;23182;-59
2023/04/02 00:57:44;;;;;;;19.00;9.20;;;;;;;5.74;97.07;99457.30;110004;1274;23193;-57
2023/04/02 01:00:23;;;;;;;19.20;9.00;;;;;;;5.72;97.06;99463.58;109999;1274;22175;-57
2023/04/02 01:03:28;;;;;;;24.40;9.50;;;;;;;5.66;96.96;99469.59;109985;1269;23545;-58
2023/04/02 01:06:09;;;;;;;21.40;9.00;;;;;;;5.59;96.92;99471.66;109972;1269;22924;-57
2023/04/02 01:09:05;;;;;;;19.30;9.00;;;;;;;5.53;96.94;99472.66;110015;1274;22405;-58
2023/04/02 01:11:56;;;;;;;17.80;7.80;;;;;;;5.50;97.33;99478.96;109941;1270;22593;-58
2023/04/02 01:14:40;;;;;;;21.30;8.40;;;;;;;5.48;97.31;99481.48;110010;1272;22146;-60
2023/04/02 01:17:25;;;;;;;19.00;8.60;;;;;;;5.44;97.25;99486.26;109997;1273;22543;-60
2023/04/02 01:20:40;;;;;;;18.00;7.60;;;;;;;5.41;97.31;99489.54;110031;1274;22144;-59
2023/04/02 01:23:18;;;;;;;17.10;6.90;;;;;;;5.37;97.34;99493.05;109774;1277;24212;-57
2023/04/02 01:25:53;;;;;;;13.30;5.90;;;;;;;5.33;97.29;99495.00;109799;1284;22363;-56
2023/04/02 01:28:32;;;;;;;14.80;5.40;;;;;;;5.24;96.99;99500.75;109804;1272;22218;-57
2023/04/02 01:31:04;;;;;;;16.40;7.00;;;;;;;5.18;97.09;99504.16;109760;1273;22238;-56
2023/04/02 01:33:36;;;;;;;14.90;5.80;;;;;;;5.15;97.25;99504.45;109760;1276;22436;-57
2023/04/02 01:36:16;;;;;;;13.80;5.00;;;;;;;5.14;97.42;99507.50;109773;1274;22185;-56
2023/04/02 01:38:54;;;;;;;12.20;5.10;;;;;;;5.12;97.16;99507.83;109820;1268;22485;-56
2023/04/02 01:41:30;;;;;;;13.50;4.00;;;;;;;5.07;96.94;99514.91;109771;1269;22910;-58
2023/04/02 01:44:07;;;;;;;15.10;5.80;;;;;;;4.99;96.76;99519.06;109780;1276;22400;-58
2023/04/02 01:46:43;;;;;;;15.80;6.00;;;;;;;4.94;97.02;99528.09;109743;1277;22396;-56
2023/04/02 01:49:18;;;;;;;16.00;5.80;;;;;;;4.87;96.89;99532.16;109767;1273;22196;-59
2023/04/02 01:51:55;;;;;;;14.10;5.90;;;;;;;4.85;97.11;99531.55;109778;1273;22288;-58
2023/04/02 01:54:27;;;;;;;16.00;6.90;;;;;;;4.81;97.10;99533.90;109792;1273;22318;-58
2023/04/02 01:56:58;;;;;;;14.20;5.00;;;;;;;4.80;97.19;99539.40;109564;1277;22582;-58
2023/04/02 01:59:32;;;;;;;15.50;6.40;;;;;;;4.77;97.21;99542.36;105644;1274;22534;-56
2023/04/02 02:02:04;;;;;;;14.20;6.40;;;;;;;4.77;97.28;99543.88;105966;1273;25498;-57
2023/04/02 02:04:35;;;;;;;19.40;7.20;;;;;;;4.75;97.33;99544.27;109990;1274;22234;-58
2023/04/02 02:07:13;;;;;;;18.60;7.30;;;;;;;4.72;97.34;99546.86;109983;1274;22926;-58
2023/04/02 02:09:44;;;;;;;14.30;5.70;;;;;;;4.70;97.31;99549.88;110012;1274;22311;-57
2023/04/02 02:12:16;;;;;;;17.80;7.00;;;;;;;4.66;97.13;99548.04;109973;1274;22214;-55
2023/04/02 02:14:51;;;;;;;16.30;5.70;;;;;;;4.66;97.23;99551.92;110000;1273;22243;-58
2023/04/02 02:17:28;;;;;;;13.90;5.00;;;;;;;4.62;96.97;99555.31;109995;1267;22289;-58
2023/04/02 02:20:20;;;;;;;16.50;6.70;;;;;;;4.60;97.09;99562.98;109937;1265;22207;-57
2023/04/02 02:22:53;;;;;;;16.90;6.00;;;;;;;4.60;97.08;99567.47;110001;1270;22320;-57
2023/04/02 02:25:27;;;;;;;16.00;6.10;;;;;;;4.60;97.12;99572.35;110007;1273;22228;-55
2023/04/02 02:28:02;;;;;;;14.60;5.70;;;;;;;4.61;97.01;99574.56;109974;1270;22135;-58
2023/04/02 02:30:36;;;;;;;16.30;5.60;;;;;;;4.62;97.30;99576.72;110015;1277;22555;-57
2023/04/02 02:33:15;;;;;;;13.70;5.40;;;;;;;4.62;97.10;99580.68;109905;1270;22209;-58
2023/04/02 02:35:50;;;;;;;14.30;4.90;;;;;;;4.58;96.96;99584.14;110032;1274;22787;-57
2023/04/02 02:38:44;;;;;;;14.00;4.70;;;;;;;4.58;96.92;99587.23;109991;1273;23062;-58
2023/04/02 02:41:21;;;;;;;11.00;3.80;;;;;;;4.57;96.92;99595.86;109973;1269;22289;-58
2023/04/02 02:43:59;;;;;;;11.70;3.60;;;;;;;4.53;96.47;99598.14;110019;1280;22464;-55
2023/04/02 02:46:32;;;;;;;9.60;2.80;;;;;;;4.49;96.42;99602.02;109967;1265;22201;-57
2023/04/02 02:49:06;;;;;;;12.00;3.50;;;;;;;4.46;96.59;99603.40;110030;1267;22398;-56
2023/04/02 02:51:47;;;;;;;12.40;4.60;;;;;;;4.47;96.65;99608.44;109985;1274;22360;-58
2023/04/02 02:54:20;;;;;;;14.00;4.40;;;;;;;4.48;96.83;99610.13;110002;1270;22932;-58
2023/04/02 02:56:55;;;;;;;13.80;3.90;;;;;;;4.48;96.85;99617.86;110017;1276;22292;-58
2023/04/02 02:59:27;;;;;;;9.10;2.70;;;;;;;4.43;96.33;99618.12;109981;1273;22214;-58
2023/04/02 03:02:00;;;;;;;9.60;3.70;;;;;;;4.37;96.47;99623.11;110009;1270;22335;-57
2023/04/02 03:04:34;;;;;;;10.10;2.70;;;;;;;4.33;96.61;99627.30;109993;1280;23466;-59
2023/04/02 03:07:08;;;;;;;10.00;3.30;;;;;;;4.27;96.37;99632.70;109957;1274;22272;-59
2023/04/02 03:09:46;;;;;;;10.90;2.60;;;;;;;4.24;96.52;99638.72;109999;1274;22237;-59
2023/04/02 03:12:35;;;;;;;7.70;1.80;;;;;;;4.20;96.43;99649.69;109970;1269;22197;-59
2023/04/02 03:15:15;;;;;;;8.50;2.10;;;;;;;4.15;96.26;99651.92;109992;1273;22288;-58
2023/04/02 03:17:50;;;;;;;8.80;2.40;;;;;;;4.06;96.06;99653.27;110009;1273;23120;-56
2023/04/02 03:20:26;;;;;;;6.40;1.70;;;;;;;4.04;96.47;99657.85;109978;1273;22161;-58
2023/04/02 03:23:04;;;;;;;6.30;2.00;;;;;;;4.02;96.33;99667.39;109988;1280;22392;-59
2023/04/02 03:25:41;;;;;;;9.90;2.00;;;;;;;3.98;96.36;99662.78;110022;1280;22459;-59
2023/04/02 03:28:18;;;;;;;5.70;1.60;;;;;;;3.93;96.24;99669.67;109999;1272;22207;-58
2023/04/02 03:30:54;;;;;;;7.80;2.40;;;;;;;3.90;96.56;99675.77;110007;1277;22236;-56
2023/04/02 03:33:27;;;;;;;5.80;1.40;;;;;;;3.92;96.90;99679.73;110006;1277;23073;-58
2023/04/02 03:36:03;;;;;;;8.00;2.30;;;;;;;3.95;96.90;99685.86;109943;1272;22202;-58
2023/04/02 03:38:41;;;;;;;7.10;1.70;;;;;;;3.88;96.31;99689.83;110005;1273;22330;-56
2023/04/02 03:41:18;;;;;;;6.10;1.70;;;;;;;3.84;96.53;99697.04;110007;1267;22698;-59
2023/04/02 03:43:52;;;;;;;6.30;1.70;;;;;;;3.81;96.30;99699.53;109948;1274;22135;-58
2023/04/02 03:46:31;;;;;;;5.90;1.50;;;;;;;3.80;96.25;99708.01;109995;1273;22283;-59
2023/04/02 03:49:06;;;;;;;4.70;1.30;;;;;;;3.78;96.16;99713.99;109972;1271;22290;-58
2023/04/02 03:51:41;;;;;;;5.60;1.60;;;;;;;3.74;95.96;99716.65;109976;1273;23164;-57
2023/04/02 03:54:16;;;;;;;5.30;1.30;;;;;;;3.67;95.62;99722.65;109031;1274;22703;-58
2023/04/02 03:56:48;;;;;;;4.90;1.40;;;;;;;3.59;95.69;99721.79;109989;1269;22170;-58
2023/04/02 03:59:31;;;;;;;4.10;1.10;;;;;;;3.56;95.73;99729.73;110020;1264;22258;-58
2023/04/02 04:02:12;;;;;;;5.30;1.20;;;;;;;3.52;95.71;99735.93;109926;1275;22410;-58
2023/04/02 04:04:43;;;;;;;;;;;;;;;3.48;95.88;99740.76;110015;1277;22443;-58
2023/04/02 04:07:20;;;;;;;6.80;1.60;;;;;;;3.46;95.99;99751.07;110000;1273;22148;-57
2023/04/02 04:09:53;;;;;;;5.40;1.60;;;;;;;3.48;96.15;99749.53;109988;1273;22256;-57
2023/04/02 04:12:30;;;;;;;5.90;1.80;;;;;;;3.47;95.94;99758.15;110006;1274;23588;-58
2023/04/02 04:15:07;;;;;;;5.00;1.70;;;;;;;3.44;96.11;99762.02;110006;1268;22164;-57
2023/04/02 04:17:50;;;;;;;6.60;1.60;;;;;;;3.43;96.30;99767.41;110012;1270;22917;-59
2023/04/02 04:20:24;;;;;;;5.10;1.50;;;;;;;3.44;96.48;99772.20;110018;1265;23015;-58
2023/04/02 04:22:56;;;;;;;9.20;1.90;;;;;;;3.43;96.20;99778.23;106520;1280;22548;-59
2023/04/02 04:25:32;;;;;;;5.70;1.50;;;;;;;3.40;96.18;99780.21;110004;1276;22252;-60
2023/04/02 04:28:15;;;;;;;7.00;2.10;;;;;;;3.36;96.04;99785.14;110023;1273;22220;-60
2023/04/02 04:30:53;;;;;;;7.00;2.10;;;;;;;3.32;95.95;99791.98;109966;1274;22284;-61
2023/04/02 04:33:27;;;;;;;7.20;2.00;;;;;;;3.28;95.97;99799.16;109901;1269;22254;-61
2023/04/02 04:36:00;;;;;;;5.80;1.90;;;;;;;3.27;96.00;99802.36;109932;1271;22185;-60
2023/04/02 04:38:38;;;;;;;8.80;2.20;;;;;;;3.24;95.99;99805.42;109954;1273;22424;-59
2023/04/02 04:41:16;;;;;;;7.10;2.30;;;;;;;3.21;95.84;99807.20;109946;1273;22379;-58
2023/04/02 04:43:52;;;;;;;7.90;2.70;;;;;;;3.20;96.03;99810.78;109967;1274;23176;-58
2023/04/02 04:46:33;;;;;;;8.50;2.60;;;;;;;3.21;96.23;99815.53;109989;1273;22375;-59
2023/04/02 04:49:12;;;;;;;7.60;2.40;;;;;;;3.24;96.28;99820.02;109950;1276;22172;-58
2023/04/02 04:51:48;;;;;;;9.50;3.10;;;;;;;3.25;96.31;99822.67;109953;1274;22205;-59
2023/04/02 04:54:20;;;;;;;11.40;3.50;;;;;;;3.25;96.22;99825.44;109923;1274;22280;-60
2023/04/02 04:56:55;;;;;;;12.00;4.40;;;;;;;3.28;96.40;99830.06;106362;1257;23042;-59
2023/04/02 04:59:31;;;;;;;14.20;5.10;;;;;;;3.31;96.48;99836.77;105813;1265;25386;-59
2023/04/02 05:02:08;;;;;;;11.40;3.80;;;;;;;3.31;96.53;99841.90;107274;1274;22962;-58
2023/04/02 05:04:41;;;;;;;16.30;5.90;;;;;;;3.27;96.57;99847.59;109937;1274;22135;-59
2023/04/02 05:07:17;;;;;;;17.10;5.10;;;;;;;3.26;96.82;99856.13;109902;1276;23189;-59
2023/04/02 05:09:57;;;;;;;15.50;5.90;;;;;;;3.26;96.93;99861.52;109958;1273;23158;-58
2023/04/02 05:12:36;;;;;;;14.80;5.80;;;;;;;3.28;97.09;99864.66;109857;1273;23007;-59
2023/04/02 05:15:15;;;;;;;17.80;7.20;;;;;;;3.29;97.33;99865.35;109964;1267;22275;-58
2023/04/02 05:17:51;;;;;;;18.70;6.70;;;;;;;3.32;97.40;99873.09;109909;1274;22385;-59
2023/04/02 05:20:29;;;;;;;21.50;7.10;;;;;;;3.35;97.68;99875.52;109975;1265;23624;-59
2023/04/02 05:23:06;;;;;;;14.90;5.30;;;;;;;3.41;97.71;99883.14;109905;1274;23159;-57
2023/04/02 05:25:50;;;;;;;14.10;4.90;;;;;;;3.41;97.63;99885.52;109939;1276;22586;-58
2023/04/02 05:28:27;;;;;;;14.10;4.80;;;;;;;3.41;97.47;99893.46;106864;1270;26567;-58
2023/04/02 05:31:02;;;;;;;13.30;4.60;;;;;;;3.42;97.25;99897.55;109924;1270;22407;-58
2023/04/02 05:33:35;;;;;;;16.20;3.70;;;;;;;3.39;97.16;99899.14;109972;1268;22321;-59
2023/04/02 05:36:10;;;;;;;12.10;3.70;;;;;;;3.36;97.02;99901.27;109902;1276;24286;-59
2023/04/02 05:38:46;;;;;;;12.40;3.20;;;;;;;3.40;97.12;99901.70;109968;1272;22308;-57
2023/04/02 05:41:25;;;;;;;13.90;4.30;;;;;;;3.43;97.05;99906.81;109944;1273;22185;-59
2023/04/02 05:44:05;;;;;;;13.50;4.70;;;;;;;3.44;97.09;99906.46;109954;1273;22409;-57
2023/04/02 05:46:48;;;;;;;18.00;5.80;;;;;;;3.43;96.97;99911.14;109960;1280;23019;-58
2023/04/02 05:49:25;;;;;;;16.70;5.40;;;;;;;3.40;96.94;99911.31;109927;1273;22210;-59
2023/04/02 05:52:00;;;;;;;12.90;4.20;;;;;;;3.39;96.79;99911.88;109940;1276;23119;-59
2023/04/02 05:54:38;;;;;;;14.50;4.20;;;;;;;3.42;96.95;99919.92;109942;1276;22415;-58
2023/04/02 05:57:14;;;;;;;17.40;5.40;;;;;;;3.44;96.70;99924.77;109943;1276;22368;-58
2023/04/02 05:59:51;;;;;;;11.80;3.60;;;;;;;3.44;96.62;99934.69;109934;1273;22319;-59
2023/04/02 06:02:29;;;;;;;9.50;2.80;;;;;;;3.44;96.66;99936.17;109940;1272;23175;-57
2023/04/02 06:05:05;;;;;;;9.60;3.10;;;;;;;3.42;96.15;99937.03;109915;1280;23098;-58
2023/04/02 06:07:45;;;;;;;10.20;2.90;;;;;;;3.43;96.29;99941.65;109961;1277;22322;-64
2023/04/02 06:10:22;;;;;;;15.90;4.50;;;;;;;3.45;96.41;99948.48;109942;1270;22198;-59
2023/04/02 06:12:57;;;;;;;11.40;4.00;;;;;;;3.45;96.55;99950.20;109932;1276;22209;-59
2023/04/02 06:15:28;;;;;;;10.30;2.70;;;;;;;3.45;96.23;99955.97;109963;1273;23256;-59
2023/04/02 06:18:06;;;;;;;11.20;3.90;;;;;;;3.45;96.24;99953.76;109934;1272;22218;-66
2023/04/02 06:20:37;;;;;;;12.20;3.70;;;;;;;3.46;96.15;99959.77;109940;1273;22183;-59
2023/04/02 06:23:12;;;;;;;11.50;3.60;;;;;;;3.45;96.03;99967.53;109923;1273;22358;-61
2023/04/02 06:25:46;;;;;;;9.70;2.10;;;;;;;3.44;95.66;99968.14;107990;1273;23915;-59
2023/04/02 06:28:21;;;;;;;13.80;3.80;;;;;;;3.43;95.76;99975.88;109970;1265;22317;-61
2023/04/02 06:30:56;;;;;;;12.90;4.10;;;;;;;3.43;95.85;99977.86;109950;1273;22253;-61
2023/04/02 06:33:27;;;;;;;14.30;4.10;;;;;;;3.42;95.98;99983.70;109947;1276;22368;-60
2023/04/02 06:36:00;;;;;;;10.00;3.50;;;;;;;3.43;96.12;99985.88;109934;1269;22330;-60
2023/04/02 06:38:34;;;;;;;11.90;2.60;;;;;;;3.45;96.05;99991.28;109956;1268;22352;-60
2023/04/02 06:41:13;;;;;;;13.10;3.60;;;;;;;3.44;95.65;99997.54;109948;1273;22416;-60
2023/04/02 06:43:47;;;;;;;8.90;2.30;;;;;;;3.44;95.67;100001.78;109980;1277;22345;-60
2023/04/02 06:46:23;;;;;;;10.80;2.90;;;;;;;3.43;95.51;99999.77;109921;1271;22315;-60
2023/04/02 06:49:01;;;;;;;12.20;4.00;;;;;;;3.44;95.54;100007.06;109917;1277;22292;-61
2023/04/02 06:51:36;;;;;;;14.20;4.40;;;;;;;3.44;95.68;100009.73;109942;1273;22366;-61
2023/04/02 06:54:12;;;;;;;13.40;3.50;;;;;;;3.46;95.93;100014.89;109939;1273;22299;-58
2023/04/02 06:56:46;;;;;;;10.00;2.70;;;;;;;3.48;95.88;100020.03;109970;1268;22091;-59
2023/04/02 06:59:18;;;;;;;13.70;3.80;;;;;;;3.49;95.63;100024.84;109927;1267;22314;-58
2023/04/02 07:01:53;;;;;;;10.20;2.80;;;;;;;3.50;95.69;100032.15;109953;1276;22233;-57
2023/04/02 07:04:24;;;;;;;10.90;3.20;;;;;;;3.50;95.31;100035.23;109929;1276;22801;-57
2023/04/02 07:06:55;;;;;;;13.00;3.10;;;;;;;3.49;95.27;100041.47;109959;1273;23116;-59
2023/04/02 07:09:27;;;;;;;11.80;2.80;;;;;;;3.50;95.22;100046.89;109604;1259;22345;-58
2023/04/02 07:11:58;;;;;;;10.10;2.80;;;;;;;3.50;95.27;100048.30;109699;1272;22213;-58
2023/04/02 07:14:29;;;;;;;8.70;2.40;;;;;;;3.53;95.43;100054.28;109895;1265;22256;-58
2023/04/02 07:17:00;;;;;;;9.90;2.60;;;;;;;3.56;95.30;100054.13;109899;1280;22185;-59
2023/04/02 07:19:31;;;;;;;8.80;1.90;;;;;;;3.61;95.35;100058.33;109926;1269;22311;-57
2023/04/02 07:22:02;;;;;;;6.40;1.50;;;;;;;3.61;94.60;100062.81;109875;1273;22326;-58
2023/04/02 07:24:33;;;;;;;9.80;1.90;;;;;;;3.60;94.01;100066.96;109934;1273;22356;-58
2023/04/02 07:27:04;;;;;;;7.40;2.00;;;;;;;3.62;94.60;100072.58;109895;1276;22188;-58
2023/04/02 07:29:36;;;;;;;7.30;1.50;;;;;;;3.62;94.15;100076.27;109916;1269;22356;-55
2023/04/02 07:32:07;;;;;;;6.60;1.40;;;;;;;3.62;93.95;100079.50;109869;1274;22338;-57
2023/04/02 07:34:39;;;;;;;6.90;1.10;;;;;;;3.63;93.81;100083.36;109893;1280;22375;-59
2023/04/02 07:37:12;;;;;;;6.80;1.20;;;;;;;3.62;93.70;100083.13;109899;1278;22333;-58
2023/04/02 07:39:43;;;;;;;5.30;1.10;;;;;;;3.65;93.74;100089.06;109883;1277;22221;-58
2023/04/02 07:42:15;;;;;;;6.40;1.20;;;;;;;3.65;93.73;100087.48;109917;1274;22310;-58
2023/04/02 07:44:45;;;;;;;5.80;1.30;;;;;;;3.68;93.85;100092.21;109916;1273;22289;-59
2023/04/02 07:47:17;;;;;;;8.20;1.40;;;;;;;3.68;93.58;100094.73;109902;1267;22199;-58
2023/04/02 07:49:48;;;;;;;5.50;1.10;;;;;;;3.66;93.15;100094.32;109906;1274;22308;-59
2023/04/02 07:52:20;;;;;;;6.40;1.60;;;;;;;3.62;93.24;100092.83;109882;1264;22330;-58
2023/04/02 07:54:51;;;;;;;5.40;1.30;;;;;;;3.63;93.46;100100.70;109879;1273;22215;-58
2023/04/02 07:57:22;;;;;;;6.30;1.40;;;;;;;3.64;93.67;100105.95;109923;1276;22356;-59
2023/04/02 07:59:55;;;;;;;3.80;1.00;;;;;;;3.64;93.51;100108.07;109896;1270;23216;-56
2023/04/02 08:02:26;;;;;;;5.80;1.00;;;;;;;3.65;93.20;100116.02;109895;1273;22551;-58
2023/04/02 08:04:57;;;;;;;5.90;1.40;;;;;;;3.64;93.20;100119.36;109877;1273;22199;-59
2023/04/02 08:07:28;;;;;;;4.80;1.30;;;;;;;3.65;93.24;100123.45;109932;1267;22143;-58
2023/04/02 08:09:59;;;;;;;4.70;1.20;;;;;;;3.64;93.16;100127.88;109892;1273;22333;-57
2023/04/02 08:12:30;;;;;;;4.20;1.20;;;;;;;3.63;93.24;100137.30;109882;1260;22333;-58
2023/04/02 08:15:02;;;;;;;7.60;1.40;;;;;;;3.64;93.28;100143.67;109909;1273;22315;-57
2023/04/02 08:17:32;;;;;;;8.40;1.50;;;;;;;3.65;93.29;100151.77;109935;1267;22399;-59
2023/04/02 08:20:05;;;;;;;5.30;1.20;;;;;;;3.69;93.73;100153.63;109915;1266;22631;-57
2023/04/02 08:22:36;;;;;;;5.80;1.30;;;;;;;3.71;93.27;100158.23;109955;1273;22344;-56
2023/04/02 08:25:09;;;;;;;6.90;1.30;;;;;;;3.73;93.09;100157.23;109935;1266;22173;-57
2023/04/02 08:27:40;;;;;;;5.20;1.40;;;;;;;3.76;93.16;100167.64;109934;1273;22409;-62
2023/04/02 08:30:14;;;;;;;5.90;1.30;;;;;;;3.78;92.75;100169.73;109933;1269;22327;-56
2023/04/02 08:32:45;;;;;;;5.10;1.30;;;;;;;3.82;92.95;100173.47;109966;1270;22227;-58
2023/04/02 08:35:17;;;;;;;4.20;1.20;;;;;;;3.84;92.53;100174.03;109969;1269;22863;-57
2023/04/02 08:37:47;;;;;;;5.50;1.30;;;;;;;3.85;92.49;100183.81;109954;1276;22218;-58
2023/04/02 08:40:26;;;;;;;5.10;1.60;;;;;;;3.85;92.58;100185.94;109964;1264;22444;-58
2023/04/02 08:43:17;;;;;;;4.90;1.30;;;;;;;3.87;92.76;100183.98;109902;1273;22174;-57
2023/04/02 08:46:02;;;;;;;8.80;1.90;;;;;;;3.86;91.88;100184.50;109926;1267;23294;-57
2023/04/02 08:48:35;;;;;;;8.40;1.60;;;;;;;3.89;92.71;100186.99;109917;1273;22144;-58
2023/04/02 08:51:07;;;;;;;7.90;1.60;;;;;;;3.95;92.26;100184.17;109965;1273;22259;-58
2023/04/02 08:53:41;;;;;;;6.10;1.80;;;;;;;4.00;92.19;100187.98;109969;1267;22186;-58
2023/04/02 08:56:19;;;;;;;6.80;1.30;;;;;;;4.03;91.65;100192.79;109170;1267;22522;-58
2023/04/02 08:58:54;;;;;;;4.20;1.10;;;;;;;4.04;91.43;100194.80;107672;1279;25509;-58
2023/04/02 09:01:36;;;;;;;4.80;1.30;;;;;;;4.09;91.81;100193.16;109921;1269;22179;-58
2023/04/02 09:04:17;;;;;;;3.70;1.10;;;;;;;4.18;91.72;100195.46;109926;1273;22706;-57
2023/04/02 09:06:51;;;;;;;4.60;1.30;;;;;;;4.27;92.05;100197.80;109983;1273;22842;-58
2023/04/02 09:09:23;;;;;;;5.90;1.40;;;;;;;4.36;91.76;100199.13;109953;1273;22168;-59
2023/04/02 09:11:59;;;;;;;5.20;1.30;;;;;;;4.41;91.27;100198.60;109913;1267;22341;-58
2023/04/02 09:14:41;;;;;;;3.80;1.00;;;;;;;4.44;91.10;100203.74;109924;1272;22320;-58
2023/04/02 09:17:19;;;;;;;6.70;1.50;;;;;;;4.45;90.00;100205.14;109938;1273;22350;-58
2023/04/02 09:19:57;;;;;;;5.60;1.20;;;;;;;4.46;91.04;100207.46;109929;1267;22197;-58
2023/04/02 09:22:30;;;;;;;5.80;1.60;;;;;;;4.51;91.02;100212.76;109869;1269;22431;-58
2023/04/02 09:25:03;;;;;;;5.90;1.40;;;;;;;4.52;90.58;100214.86;109924;1273;22205;-59
2023/04/02 09:27:36;;;;;;;6.70;1.40;;;;;;;4.52;90.44;100219.52;109961;1273;22179;-59
2023/04/02 09:30:20;;;;;;;6.70;1.60;;;;;;;4.49;89.97;100221.91;109952;1268;22233;-58
2023/04/02 09:32:53;;;;;;;7.70;1.90;;;;;;;4.45;90.10;100233.48;109935;1264;22326;-60
2023/04/02 09:35:25;;;;;;;9.00;1.80;;;;;;;4.43;90.17;100234.41;109956;1267;23059;-60
2023/04/02 09:38:20;;;;;;;5.00;1.40;;;;;;;4.41;90.33;100242.73;109947;1274;22396;-60
2023/04/02 09:41:00;;;;;;;6.30;1.70;;;;;;;4.39;89.92;100246.11;109970;1273;22805;-60
2023/04/02 09:43:33;;;;;;;7.10;2.30;;;;;;;4.35;89.69;100257.36;109706;1273;22551;-58
2023/04/02 09:46:06;;;;;;;11.30;2.40;;;;;;;4.32;90.03;100263.04;109894;1272;22150;-60
2023/04/02 09:48:42;;;;;;;8.30;1.90;;;;;;;4.32;89.96;100269.23;109947;1267;22206;-58
2023/04/02 09:51:18;;;;;;;10.10;2.60;;;;;;;4.27;89.40;100269.27;109958;1266;23203;-59
2023/04/02 09:53:51;;;;;;;10.50;2.50;;;;;;;4.24;89.72;100274.08;109981;1273;22948;-60
2023/04/02 09:56:25;;;;;;;9.50;2.20;;;;;;;4.26;90.25;100272.88;109940;1265;22177;-59
2023/04/02 09:59:07;;;;;;;15.30;2.70;;;;;;;4.24;88.76;100281.73;109957;1280;22174;-61
2023/04/02 10:01:40;;;;;;;8.40;1.80;;;;;;;4.22;89.01;100285.37;109993;1280;22118;-59
2023/04/02 10:04:42;;;;;;;10.50;2.50;;;;;;;4.22;89.66;100290.88;109955;1267;22214;-61
2023/04/02 10:07:37;;;;;;;11.40;2.20;;;;;;;4.27;89.75;100298.66;109990;1273;22159;-57
2023/04/02 10:10:22;;;;;;;15.60;2.20;;;;;;;4.28;89.68;100299.17;109950;1265;22895;-56
2023/04/02 10:12:59;;;;;;;8.60;2.20;;;;;;;4.30;89.61;100302.67;110000;1272;22307;-55
2023/04/02 10:15:35;;;;;;;8.30;1.70;;;;;;;4.32;89.17;100303.50;109943;1273;22338;-57
2023/04/02 10:18:13;;;;;;;11.00;2.30;;;;;;;4.32;89.10;100308.85;109889;1273;22319;-56
2023/04/02 10:20:46;;;;;;;8.70;1.80;;;;;;;4.33;89.37;100308.67;109920;1264;22422;-58
2023/04/02 10:23:19;;;;;;;12.50;3.20;;;;;;;4.34;89.58;100313.53;109960;1273;22200;-57
2023/04/02 10:25:57;;;;;;;9.60;1.90;;;;;;;4.35;89.26;100319.59;110006;1274;22136;-57
2023/04/02 10:28:44;;;;;;;9.40;2.00;;;;;;;4.34;89.19;100321.11;109999;1273;22154;-57
2023/04/02 10:31:21;;;;;;;8.90;2.10;;;;;;;4.31;88.55;100326.33;109982;1274;22200;-56
2023/04/02 10:33:59;;;;;;;8.40;1.90;;;;;;;4.29;88.85;100326.55;109844;1273;22427;-57
2023/04/02 10:36:43;;;;;;;8.10;1.70;;;;;;;4.30;89.14;100326.27;109965;1273;23099;-57
2023/04/02 10:39:20;;;;;;;10.20;2.10;;;;;;;4.33;89.22;100327.30;109970;1273;22300;-57
2023/04/02 10:41:59;;;;;;;5.90;1.50;;;;;;;4.34;88.93;100326.81;109981;1268;22374;-58
2023/04/02 10:44:37;;;;;;;8.90;1.70;;;;;;;4.35;88.80;100327.89;109983;1272;22757;-57
2023/04/02 10:47:25;;;;;;;7.20;1.60;;;;;;;4.36;88.57;100328.66;109988;1273;22393;-57
2023/04/02 10:50:05;;;;;;;8.30;2.00;;;;;;;4.38;88.82;100335.08;109970;1276;22943;-57
2023/04/02 10:52:43;;;;;;;7.50;1.60;;;;;;;4.41;88.69;100332.23;109975;1273;23100;-55
2023/04/02 10:55:20;;;;;;;7.20;1.60;;;;;;;4.43;88.52;100329.34;108584;1272;22536;-55
2023/04/02 10:57:54;;;;;;;8.00;2.00;;;;;;;4.43;87.88;100335.58;109955;1264;22346;-56
2023/04/02 11:00:28;;;;;;;7.90;1.50;;;;;;;4.45;87.62;100340.02;109931;1276;22327;-57
2023/04/02 11:03:04;;;;;;;7.80;2.00;;;;;;;4.46;87.27;100343.07;109859;1264;23256;-58
2023/04/02 11:05:43;;;;;;;9.30;1.80;;;;;;;4.47;87.64;100354.34;109979;1273;22209;-57
2023/04/02 11:08:20;;;;;;;7.60;1.70;;;;;;;4.52;88.00;100352.48;109990;1271;22340;-55
2023/04/02 11:10:56;;;;;;;6.90;1.60;;;;;;;4.57;87.93;100359.59;106284;1280;22653;-54
2023/04/02 11:13:31;;;;;;;7.00;1.70;;;;;;;4.62;87.84;100362.14;109940;1280;22236;-57
2023/04/02 11:16:02;;;;;;;9.00;1.30;;;;;;;4.67;87.54;100368.52;109947;1273;22328;-57
2023/04/02 11:18:36;;;;;;;5.90;1.50;;;;;;;4.69;87.17;100372.73;109929;1272;22450;-54
2023/04/02 11:21:35;;;;;;;9.00;1.60;;;;;;;4.66;87.06;100372.95;109937;1266;23367;-58
2023/04/02 11:24:28;;;;;;;9.20;1.50;;;;;;;4.59;86.32;100379.84;109981;1268;22243;-55
2023/04/02 11:27:07;;;;;;;5.40;1.50;;;;;;;4.53;86.26;100383.48;109921;1269;22438;-57
2023/04/02 11:29:40;;;;;;;5.00;1.40;;;;;;;4.49;86.45;100387.77;109909;1264;22969;-62
2023/04/02 11:32:31;;;;;;;9.00;1.80;;;;;;;4.46;86.91;100387.30;109974;1264;22374;-59
2023/04/02 11:35:27;;;;;;;6.00;1.40;;;;;;;4.48;87.00;100398.16;105845;1270;5406532;-60
2023/04/02 11:38:03;;;;;;;6.90;1.40;;;;;;;4.49;87.20;100400.25;109950;1270;22200;-60
2023/04/02 11:40:46;;;;;;;8.00;1.70;;;;;;;4.50;86.34;100408.73;109945;1273;22167;-60
2023/04/02 11:43:50;;;;;;;7.30;1.30;;;;;;;4.51;86.34;100403.84;109978;1268;22192;-58
2023/04/02 11:46:47;;;;;;;5.30;1.20;;;;;;;4.52;86.79;100408.38;109780;1273;22355;-59
2023/04/02 11:49:39;;;;;;;11.50;1.60;;;;;;;4.60;87.17;100408.25;109812;1273;22219;-64
2023/04/02 11:52:26;;;;;;;4.80;1.20;;;;;;;4.67;86.40;100409.75;109720;1273;22423;-61
2023/04/02 11:55:26;;;;;;;4.80;1.20;;;;;;;4.71;86.03;100416.33;109806;1267;22198;-60
2023/04/02 11:58:21;;;;;;;4.30;1.00;;;;;;;4.76;85.54;100416.52;109752;1273;22464;-60
2023/04/02 12:01:22;;;;;;;4.90;1.10;;;;;;;4.81;85.88;100418.30;109785;1273;23329;-60
2023/04/02 12:04:00;;;;;;;;;;;;;;;4.87;85.85;100426.75;109528;1276;22420;-60
2023/04/02 12:06:47;;;;;;;6.20;1.20;;;;;;;4.91;85.37;100429.23;109442;1283;23135;-60
2023/04/02 12:09:22;;;;;;;6.70;1.10;;;;;;;4.90;84.94;100434.64;109502;1274;22879;-60
2023/04/02 12:11:55;;;;;;;7.30;1.30;;;;;;;4.90;84.83;100440.41;109497;1280;22282;-60